createdAt,value
2019-02-03T00:00:56.543Z,964.48
2019-02-03T00:01:56.457Z,964.48
2019-02-03T00:02:56.374Z,964.52
2019-02-03T00:03:56.282Z,964.45
2019-02-03T00:04:56.197Z,964.40
2019-02-03T00:05:56.108Z,964.40
2019-02-03T00:07:02.929Z,964.34
2019-02-03T00:07:55.932Z,964.39
2019-02-03T00:08:55.844Z,964.36
2019-02-03T00:09:55.757Z,964.45
2019-02-03T00:10:55.665Z,964.52
2019-02-03T00:11:55.581Z,964.54
2019-02-03T00:12:55.494Z,964.59
2019-02-03T00:13:55.407Z,964.57
2019-02-03T00:14:55.317Z,964.60
2019-02-03T00:15:55.231Z,964.64
2019-02-03T00:16:55.142Z,964.64
2019-02-03T00:17:55.055Z,964.62
2019-02-03T00:18:54.967Z,964.57
2019-02-03T00:19:54.882Z,964.55
2019-02-03T00:20:54.794Z,964.52
2019-02-03T00:21:54.700Z,964.44
2019-02-03T00:22:54.616Z,964.38
2019-02-03T00:23:54.528Z,964.37
2019-02-03T00:24:54.440Z,964.40
2019-02-03T00:25:54.354Z,964.46
2019-02-03T00:26:54.264Z,964.48
2019-02-03T00:27:54.179Z,964.55
2019-02-03T00:28:54.239Z,964.60
2019-02-03T00:29:54.001Z,964.66
2019-02-03T00:30:53.915Z,964.69
2019-02-03T00:31:53.832Z,964.76
2019-02-03T00:32:53.743Z,964.79
2019-02-03T00:33:53.653Z,964.84
2019-02-03T00:34:53.559Z,964.85
2019-02-03T00:35:53.478Z,964.87
2019-02-03T00:36:53.391Z,964.93
2019-02-03T00:37:53.441Z,964.91
2019-02-03T00:38:53.266Z,964.99
2019-02-03T00:39:53.135Z,964.98
2019-02-03T00:40:53.082Z,964.97
2019-02-03T00:41:52.956Z,965.04
2019-02-03T00:42:52.870Z,965.14
2019-02-03T00:43:52.779Z,965.11
2019-02-03T00:44:52.694Z,965.12
2019-02-03T00:45:52.605Z,965.15
2019-02-03T00:46:52.518Z,965.21
2019-02-03T00:47:52.429Z,965.24
2019-02-03T00:48:52.344Z,965.18
2019-02-03T00:49:52.276Z,965.22
2019-02-03T00:50:52.172Z,965.27
2019-02-03T00:51:52.084Z,965.26
2019-02-03T00:52:51.996Z,965.23
2019-02-03T00:53:51.909Z,965.26
2019-02-03T00:54:51.822Z,965.21
2019-02-03T00:55:51.741Z,965.21
2019-02-03T00:56:51.648Z,965.18
2019-02-03T00:57:51.559Z,965.19
2019-02-03T00:58:51.472Z,965.14
2019-02-03T00:59:51.385Z,965.14
2019-02-03T01:00:51.304Z,965.15
2019-02-03T01:01:51.218Z,965.14
2019-02-03T01:02:51.126Z,965.10
2019-02-03T01:03:51.038Z,965.09
2019-02-03T01:04:50.953Z,965.09
2019-02-03T01:05:50.865Z,965.07
2019-02-03T01:06:50.787Z,965.07
2019-02-03T01:07:50.690Z,965.07
2019-02-03T01:08:50.604Z,965.04
2019-02-03T01:09:50.521Z,965.05
2019-02-03T01:10:50.429Z,965.01
2019-02-03T01:11:50.346Z,964.96
2019-02-03T01:12:50.262Z,965.01
2019-02-03T01:13:50.174Z,965.08
2019-02-03T01:14:50.083Z,965.05
2019-02-03T01:15:49.996Z,965.03
2019-02-03T01:16:49.911Z,965.03
2019-02-03T01:17:49.823Z,965.02
2019-02-03T01:18:49.736Z,965.05
2019-02-03T01:19:49.647Z,965.04
2019-02-03T01:20:49.560Z,965.05
2019-02-03T01:21:49.470Z,965.03
2019-02-03T01:22:49.388Z,965.07
2019-02-03T01:23:49.301Z,965.06
2019-02-03T01:24:49.212Z,964.99
2019-02-03T01:25:49.126Z,965.07
2019-02-03T01:26:49.038Z,965.06
2019-02-03T01:27:48.952Z,965.04
2019-02-03T01:28:48.865Z,964.97
2019-02-03T01:29:48.780Z,965.01
2019-02-03T01:30:48.689Z,965.02
2019-02-03T01:31:49.176Z,964.97
2019-02-03T01:32:48.516Z,964.93
2019-02-03T01:33:48.424Z,965.02
2019-02-03T01:34:48.341Z,964.90
2019-02-03T01:35:48.266Z,964.92
2019-02-03T01:36:48.173Z,965.02
2019-02-03T01:37:48.080Z,965.03
2019-02-03T01:38:47.993Z,965.05
2019-02-03T01:39:47.902Z,965.07
2019-02-03T01:40:47.820Z,965.11
2019-02-03T01:41:47.730Z,965.07
2019-02-03T01:42:47.643Z,964.99
2019-02-03T01:43:47.554Z,964.99
2019-02-03T01:44:47.468Z,964.95
2019-02-03T01:45:47.379Z,964.93
2019-02-03T01:46:47.292Z,964.92
2019-02-03T01:47:47.210Z,964.89
2019-02-03T01:48:47.122Z,964.92
2019-02-03T01:49:47.032Z,964.87
2019-02-03T01:50:46.950Z,964.86
2019-02-03T01:51:46.854Z,964.79
2019-02-03T01:52:46.771Z,964.82
2019-02-03T01:53:46.683Z,964.83
2019-02-03T01:54:46.596Z,964.78
2019-02-03T01:55:46.511Z,964.74
2019-02-03T01:56:46.421Z,964.81
2019-02-03T01:57:46.334Z,964.78
2019-02-03T01:58:46.249Z,964.78
2019-02-03T01:59:46.164Z,964.73
2019-02-03T02:00:46.075Z,964.78
2019-02-03T02:01:45.989Z,964.76
2019-02-03T02:02:45.906Z,964.74
2019-02-03T02:03:45.810Z,964.80
2019-02-03T02:04:45.727Z,964.73
2019-02-03T02:05:45.642Z,964.80
2019-02-03T02:06:45.551Z,964.78
2019-02-03T02:07:51.702Z,964.71
2019-02-03T02:08:45.380Z,964.74
2019-02-03T02:09:45.290Z,964.77
2019-02-03T02:10:45.198Z,964.81
2019-02-03T02:11:45.116Z,964.84
2019-02-03T02:12:45.032Z,964.79
2019-02-03T02:13:44.944Z,964.81
2019-02-03T02:14:44.855Z,964.83
2019-02-03T02:15:44.767Z,964.76
2019-02-03T02:16:44.682Z,964.77
2019-02-03T02:17:44.594Z,964.74
2019-02-03T02:18:44.504Z,964.73
2019-02-03T02:19:44.475Z,964.70
2019-02-03T02:20:44.337Z,964.72
2019-02-03T02:21:44.246Z,964.72
2019-02-03T02:22:44.155Z,964.81
2019-02-03T02:23:44.075Z,964.70
2019-02-03T02:24:44.107Z,964.76
2019-02-03T02:25:43.899Z,964.82
2019-02-03T02:26:43.811Z,964.77
2019-02-03T02:27:43.718Z,964.81
2019-02-03T02:28:43.650Z,964.83
2019-02-03T02:29:43.545Z,964.81
2019-02-03T02:30:43.466Z,964.75
2019-02-03T02:31:43.378Z,964.76
2019-02-03T02:32:43.284Z,964.68
2019-02-03T02:33:43.201Z,964.72
2019-02-03T02:34:43.111Z,964.67
2019-02-03T02:35:43.029Z,964.75
2019-02-03T02:36:42.940Z,964.74
2019-02-03T02:37:42.853Z,964.77
2019-02-03T02:38:42.763Z,964.72
2019-02-03T02:39:42.680Z,964.76
2019-02-03T02:40:42.586Z,964.69
2019-02-03T02:41:42.511Z,964.69
2019-02-03T02:42:42.416Z,964.76
2019-02-03T02:43:42.330Z,964.77
2019-02-03T02:44:42.242Z,964.75
2019-02-03T02:45:42.153Z,964.75
2019-02-03T02:46:42.065Z,964.75
2019-02-03T02:47:41.980Z,964.77
2019-02-03T02:48:41.892Z,964.70
2019-02-03T02:49:41.806Z,964.70
2019-02-03T02:50:41.720Z,964.80
2019-02-03T02:51:41.629Z,964.71
2019-02-03T02:52:41.544Z,964.67
2019-02-03T02:53:41.458Z,964.67
2019-02-03T02:54:41.372Z,964.65
2019-02-03T02:55:41.281Z,964.63
2019-02-03T02:56:41.194Z,964.69
2019-02-03T02:57:41.109Z,964.63
2019-02-03T02:58:41.019Z,964.59
2019-02-03T02:59:40.933Z,964.62
2019-02-03T03:00:40.852Z,964.58
2019-02-03T03:01:40.760Z,964.55
2019-02-03T03:02:40.673Z,964.47
2019-02-03T03:03:40.584Z,964.49
2019-02-03T03:04:40.498Z,964.56
2019-02-03T03:05:40.411Z,964.47
2019-02-03T03:06:40.323Z,964.52
2019-02-03T03:07:40.294Z,964.45
2019-02-03T03:08:40.150Z,964.43
2019-02-03T03:09:40.063Z,964.48
2019-02-03T03:10:39.973Z,964.43
2019-02-03T03:11:39.887Z,964.48
2019-02-03T03:12:39.798Z,964.53
2019-02-03T03:13:39.711Z,964.59
2019-02-03T03:14:39.625Z,964.60
2019-02-03T03:15:39.536Z,964.59
2019-02-03T03:16:39.464Z,964.60
2019-02-03T03:17:39.367Z,964.57
2019-02-03T03:18:39.277Z,964.61
2019-02-03T03:19:39.187Z,964.55
2019-02-03T03:20:39.142Z,964.52
2019-02-03T03:21:39.014Z,964.54
2019-02-03T03:22:38.929Z,964.57
2019-02-03T03:23:38.842Z,964.56
2019-02-03T03:24:38.753Z,964.61
2019-02-03T03:25:38.669Z,964.64
2019-02-03T03:26:38.578Z,964.65
2019-02-03T03:27:38.494Z,964.68
2019-02-03T03:28:38.406Z,964.62
2019-02-03T03:29:38.316Z,964.59
2019-02-03T03:30:38.236Z,964.54
2019-02-03T03:31:38.142Z,964.54
2019-02-03T03:32:38.059Z,964.58
2019-02-03T03:33:37.967Z,964.56
2019-02-03T03:34:37.890Z,964.54
2019-02-03T03:35:37.793Z,964.58
2019-02-03T03:36:37.705Z,964.63
2019-02-03T03:37:37.614Z,964.61
2019-02-03T03:38:37.532Z,964.58
2019-02-03T03:39:37.442Z,964.66
2019-02-03T03:40:37.370Z,964.59
2019-02-03T03:41:37.272Z,964.64
2019-02-03T03:42:37.182Z,964.67
2019-02-03T03:43:37.094Z,964.65
2019-02-03T03:44:37.007Z,964.65
2019-02-03T03:45:36.923Z,964.60
2019-02-03T03:46:36.832Z,964.61
2019-02-03T03:47:36.846Z,964.60
2019-02-03T03:48:36.659Z,964.63
2019-02-03T03:49:36.576Z,964.53
2019-02-03T03:50:36.488Z,964.59
2019-02-03T03:51:36.398Z,964.60
2019-02-03T03:52:39.317Z,964.58
2019-02-03T03:53:36.223Z,964.57
2019-02-03T03:54:36.136Z,964.55
2019-02-03T03:55:36.047Z,964.57
2019-02-03T03:56:35.961Z,964.57
2019-02-03T03:57:35.872Z,964.59
2019-02-03T03:58:35.785Z,964.59
2019-02-03T03:59:35.818Z,964.64
2019-02-03T04:00:35.613Z,964.60
2019-02-03T04:01:35.524Z,964.66
2019-02-03T04:02:35.437Z,964.66
2019-02-03T04:03:35.350Z,964.68
2019-02-03T04:04:35.262Z,964.67
2019-02-03T04:05:35.176Z,964.77
2019-02-03T04:06:35.094Z,964.78
2019-02-03T04:07:35.003Z,964.84
2019-02-03T04:08:44.877Z,964.78
2019-02-03T04:09:34.828Z,964.77
2019-02-03T04:10:34.740Z,964.80
2019-02-03T04:11:34.653Z,964.81
2019-02-03T04:12:34.563Z,964.83
2019-02-03T04:13:34.478Z,964.89
2019-02-03T04:14:34.395Z,964.82
2019-02-03T04:15:34.308Z,964.89
2019-02-03T04:16:34.218Z,964.92
2019-02-03T04:17:34.133Z,965.00
2019-02-03T04:18:34.044Z,964.99
2019-02-03T04:19:33.956Z,964.95
2019-02-03T04:20:33.869Z,965.01
2019-02-03T04:21:33.784Z,965.00
2019-02-03T04:22:33.694Z,965.01
2019-02-03T04:23:33.607Z,965.07
2019-02-03T04:24:33.521Z,965.04
2019-02-03T04:25:33.436Z,965.06
2019-02-03T04:26:33.347Z,965.13
2019-02-03T04:27:33.258Z,965.15
2019-02-03T04:28:33.177Z,965.23
2019-02-03T04:29:33.091Z,965.20
2019-02-03T04:30:32.998Z,965.17
2019-02-03T04:31:32.911Z,965.17
2019-02-03T04:32:32.826Z,965.17
2019-02-03T04:33:32.738Z,965.17
2019-02-03T04:34:32.648Z,965.19
2019-02-03T04:35:32.562Z,965.18
2019-02-03T04:36:32.477Z,965.18
2019-02-03T04:37:32.389Z,965.21
2019-02-03T04:38:32.327Z,965.27
2019-02-03T04:39:32.220Z,965.22
2019-02-03T04:40:32.126Z,965.31
2019-02-03T04:41:32.044Z,965.30
2019-02-03T04:42:31.953Z,965.31
2019-02-03T04:43:31.863Z,965.33
2019-02-03T04:44:31.789Z,965.38
2019-02-03T04:45:31.695Z,965.43
2019-02-03T04:46:31.604Z,965.42
2019-02-03T04:47:31.540Z,965.49
2019-02-03T04:48:31.430Z,965.41
2019-02-03T04:49:31.345Z,965.40
2019-02-03T04:50:31.256Z,965.42
2019-02-03T04:51:31.170Z,965.37
2019-02-03T04:52:31.090Z,965.43
2019-02-03T04:53:31.023Z,965.39
2019-02-03T04:54:30.908Z,965.41
2019-02-03T04:55:30.821Z,965.46
2019-02-03T04:56:30.878Z,965.45
2019-02-03T04:57:30.649Z,965.43
2019-02-03T04:58:30.564Z,965.43
2019-02-03T04:59:30.479Z,965.43
2019-02-03T05:00:30.393Z,965.50
2019-02-03T05:01:30.302Z,965.47
2019-02-03T05:02:30.214Z,965.48
2019-02-03T05:03:30.126Z,965.50
2019-02-03T05:04:30.039Z,965.53
2019-02-03T05:05:29.953Z,965.50
2019-02-03T05:06:29.864Z,965.54
2019-02-03T05:07:29.778Z,965.53
2019-02-03T05:08:29.737Z,965.53
2019-02-03T05:09:29.605Z,965.51
2019-02-03T05:10:29.518Z,965.56
2019-02-03T05:11:29.435Z,965.54
2019-02-03T05:12:29.346Z,965.56
2019-02-03T05:13:29.261Z,965.49
2019-02-03T05:14:29.185Z,965.55
2019-02-03T05:15:29.084Z,965.59
2019-02-03T05:16:28.993Z,965.56
2019-02-03T05:17:28.910Z,965.57
2019-02-03T05:18:28.820Z,965.58
2019-02-03T05:19:28.736Z,965.60
2019-02-03T05:20:28.647Z,965.59
2019-02-03T05:21:28.563Z,965.60
2019-02-03T05:22:28.479Z,965.61
2019-02-03T05:23:28.388Z,965.64
2019-02-03T05:24:28.298Z,965.70
2019-02-03T05:25:28.212Z,965.63
2019-02-03T05:26:28.147Z,965.71
2019-02-03T05:27:28.037Z,965.71
2019-02-03T05:28:27.950Z,965.75
2019-02-03T05:29:27.865Z,965.74
2019-02-03T05:30:27.773Z,965.76
2019-02-03T05:31:27.685Z,965.78
2019-02-03T05:32:27.609Z,965.77
2019-02-03T05:33:27.514Z,965.80
2019-02-03T05:34:27.431Z,965.79
2019-02-03T05:35:27.339Z,965.86
2019-02-03T05:36:27.253Z,965.85
2019-02-03T05:37:27.167Z,965.90
2019-02-03T05:38:27.077Z,965.78
2019-02-03T05:39:26.991Z,965.83
2019-02-03T05:40:26.903Z,965.76
2019-02-03T05:41:26.817Z,965.78
2019-02-03T05:42:26.728Z,965.76
2019-02-03T05:43:26.643Z,965.80
2019-02-03T05:44:26.555Z,965.80
2019-02-03T05:45:26.470Z,965.79
2019-02-03T05:46:26.391Z,965.83
2019-02-03T05:47:26.296Z,965.78
2019-02-03T05:48:26.207Z,965.80
2019-02-03T05:49:26.118Z,965.83
2019-02-03T05:50:26.030Z,965.79
2019-02-03T05:51:25.955Z,965.84
2019-02-03T05:52:25.857Z,965.80
2019-02-03T05:53:25.769Z,965.86
2019-02-03T05:54:25.680Z,965.86
2019-02-03T05:55:25.592Z,965.96
2019-02-03T05:56:25.507Z,965.91
2019-02-03T05:57:25.421Z,965.92
2019-02-03T05:58:25.331Z,965.95
2019-02-03T05:59:25.243Z,965.92
2019-02-03T06:00:25.156Z,965.94
2019-02-03T06:01:25.067Z,965.91
2019-02-03T06:02:24.981Z,965.93
2019-02-03T06:03:24.892Z,966.00
2019-02-03T06:04:24.881Z,965.91
2019-02-03T06:05:24.718Z,965.99
2019-02-03T06:06:24.629Z,965.98
2019-02-03T06:07:24.540Z,966.07
2019-02-03T06:08:24.455Z,966.02
2019-02-03T06:09:36.039Z,966.09
2019-02-03T06:10:24.280Z,966.11
2019-02-03T06:11:24.199Z,966.07
2019-02-03T06:12:24.106Z,966.14
2019-02-03T06:13:24.130Z,966.21
2019-02-03T06:14:23.931Z,966.21
2019-02-03T06:15:23.847Z,966.16
2019-02-03T06:16:23.762Z,966.27
2019-02-03T06:17:23.669Z,966.26
2019-02-03T06:18:23.577Z,966.31
2019-02-03T06:19:23.492Z,966.25
2019-02-03T06:20:23.404Z,966.32
2019-02-03T06:21:23.319Z,966.31
2019-02-03T06:22:23.229Z,966.35
2019-02-03T06:23:23.147Z,966.41
2019-02-03T06:24:23.054Z,966.44
2019-02-03T06:25:22.972Z,966.51
2019-02-03T06:26:22.880Z,966.44
2019-02-03T06:27:22.791Z,966.53
2019-02-03T06:28:22.702Z,966.53
2019-02-03T06:29:22.616Z,966.56
2019-02-03T06:30:22.528Z,966.63
2019-02-03T06:31:22.438Z,966.58
2019-02-03T06:32:22.355Z,966.63
2019-02-03T06:33:22.265Z,966.66
2019-02-03T06:34:22.180Z,966.72
2019-02-03T06:35:22.089Z,966.69
2019-02-03T06:36:22.006Z,966.72
2019-02-03T06:37:21.913Z,966.86
2019-02-03T06:38:21.826Z,966.80
2019-02-03T06:39:21.739Z,966.80
2019-02-03T06:40:21.657Z,966.90
2019-02-03T06:41:21.562Z,966.87
2019-02-03T06:42:21.479Z,966.89
2019-02-03T06:43:21.387Z,966.88
2019-02-03T06:44:21.300Z,967.02
2019-02-03T06:45:21.212Z,966.95
2019-02-03T06:46:21.127Z,967.06
2019-02-03T06:47:21.036Z,967.08
2019-02-03T06:48:20.954Z,967.12
2019-02-03T06:49:20.862Z,967.17
2019-02-03T06:50:20.770Z,967.18
2019-02-03T06:51:20.683Z,967.17
2019-02-03T06:52:20.603Z,967.25
2019-02-03T06:53:20.511Z,967.20
2019-02-03T06:54:20.543Z,967.19
2019-02-03T06:55:20.335Z,967.20
2019-02-03T06:56:20.245Z,967.29
2019-02-03T06:57:20.156Z,967.28
2019-02-03T06:58:20.071Z,967.34
2019-02-03T06:59:19.981Z,967.33
2019-02-03T07:00:19.897Z,967.34
2019-02-03T07:01:19.815Z,967.40
2019-02-03T07:02:19.724Z,967.38
2019-02-03T07:03:19.628Z,967.46
2019-02-03T07:04:19.543Z,967.48
2019-02-03T07:05:19.457Z,967.52
2019-02-03T07:06:19.368Z,967.47
2019-02-03T07:07:19.281Z,967.55
2019-02-03T07:08:19.193Z,967.55
2019-02-03T07:09:19.105Z,967.58
2019-02-03T07:10:19.013Z,967.59
2019-02-03T07:11:18.927Z,967.59
2019-02-03T07:12:18.845Z,967.62
2019-02-03T07:13:18.752Z,967.63
2019-02-03T07:14:18.663Z,967.69
2019-02-03T07:15:18.577Z,967.76
2019-02-03T07:16:18.489Z,967.72
2019-02-03T07:17:18.401Z,967.77
2019-02-03T07:18:18.312Z,967.80
2019-02-03T07:19:18.227Z,967.86
2019-02-03T07:20:18.136Z,967.85
2019-02-03T07:21:18.050Z,967.86
2019-02-03T07:22:17.960Z,967.90
2019-02-03T07:23:17.870Z,967.87
2019-02-03T07:24:17.784Z,967.89
2019-02-03T07:25:17.698Z,967.86
2019-02-03T07:26:17.609Z,967.96
2019-02-03T07:27:17.522Z,968.07
2019-02-03T07:28:17.436Z,968.01
2019-02-03T07:29:17.347Z,968.02
2019-02-03T07:30:17.254Z,968.01
2019-02-03T07:31:17.171Z,967.97
2019-02-03T07:32:17.081Z,967.96
2019-02-03T07:33:16.995Z,967.97
2019-02-03T07:34:16.909Z,968.06
2019-02-03T07:35:16.819Z,968.07
2019-02-03T07:36:16.730Z,968.13
2019-02-03T07:37:16.644Z,968.16
2019-02-03T07:38:16.554Z,968.13
2019-02-03T07:39:16.466Z,968.16
2019-02-03T07:40:16.383Z,968.16
2019-02-03T07:41:16.296Z,968.17
2019-02-03T07:42:16.201Z,968.14
2019-02-03T07:43:16.114Z,968.20
2019-02-03T07:44:16.028Z,968.19
2019-02-03T07:45:15.939Z,968.20
2019-02-03T07:46:15.851Z,968.16
2019-02-03T07:47:15.763Z,968.25
2019-02-03T07:48:15.678Z,968.16
2019-02-03T07:49:15.588Z,968.22
2019-02-03T07:50:15.502Z,968.20
2019-02-03T07:51:15.417Z,968.27
2019-02-03T07:52:15.325Z,968.36
2019-02-03T07:53:15.240Z,968.21
2019-02-03T07:54:15.149Z,968.36
2019-02-03T07:55:15.058Z,968.34
2019-02-03T07:56:14.972Z,968.28
2019-02-03T07:57:14.882Z,968.33
2019-02-03T07:58:14.799Z,968.30
2019-02-03T07:59:14.707Z,968.32
2019-02-03T08:00:14.616Z,968.42
2019-02-03T08:01:14.533Z,968.40
2019-02-03T08:02:14.443Z,968.42
2019-02-03T08:03:14.349Z,968.41
2019-02-03T08:04:14.356Z,968.47
2019-02-03T08:05:14.177Z,968.48
2019-02-03T08:06:14.084Z,968.49
2019-02-03T08:07:14.000Z,968.59
2019-02-03T08:08:13.912Z,968.47
2019-02-03T08:09:13.821Z,968.54
2019-02-03T08:10:24.610Z,968.59
2019-02-03T08:11:13.646Z,968.64
2019-02-03T08:12:13.558Z,968.65
2019-02-03T08:13:13.472Z,968.61
2019-02-03T08:14:13.378Z,968.66
2019-02-03T08:15:13.296Z,968.64
2019-02-03T08:16:13.205Z,968.72
2019-02-03T08:17:13.117Z,968.74
2019-02-03T08:18:13.027Z,968.74
2019-02-03T08:19:12.940Z,968.78
2019-02-03T08:20:12.851Z,968.71
2019-02-03T08:21:12.862Z,968.85
2019-02-03T08:22:12.674Z,968.86
2019-02-03T08:23:12.588Z,968.79
2019-02-03T08:24:12.494Z,968.76
2019-02-03T08:25:12.408Z,968.90
2019-02-03T08:26:12.315Z,968.86
2019-02-03T08:27:12.238Z,968.97
2019-02-03T08:28:12.144Z,968.91
2019-02-03T08:29:14.662Z,968.94
2019-02-03T08:30:11.965Z,969.02
2019-02-03T08:31:11.874Z,969.10
2019-02-03T08:32:11.789Z,969.09
2019-02-03T08:33:11.706Z,969.12
2019-02-03T08:34:11.613Z,969.03
2019-02-03T08:35:11.532Z,969.05
2019-02-03T08:36:11.434Z,969.06
2019-02-03T08:37:11.345Z,969.10
2019-02-03T08:38:11.259Z,969.10
2019-02-03T08:39:11.169Z,969.03
2019-02-03T08:40:11.098Z,969.10
2019-02-03T08:41:10.993Z,969.13
2019-02-03T08:42:10.903Z,969.16
2019-02-03T08:43:10.812Z,969.17
2019-02-03T08:44:10.726Z,969.24
2019-02-03T08:45:10.641Z,969.20
2019-02-03T08:46:10.547Z,969.23
2019-02-03T08:47:10.457Z,969.29
2019-02-03T08:48:10.372Z,969.27
2019-02-03T08:49:10.281Z,969.32
2019-02-03T08:50:10.190Z,969.28
2019-02-03T08:51:10.129Z,969.32
2019-02-03T08:52:10.042Z,969.28
2019-02-03T08:53:10.040Z,969.30
2019-02-03T08:54:09.834Z,969.30
2019-02-03T08:55:09.748Z,969.41
2019-02-03T08:56:09.655Z,969.33
2019-02-03T08:57:09.571Z,969.39
2019-02-03T08:58:09.480Z,969.43
2019-02-03T08:59:09.396Z,969.39
2019-02-03T09:00:11.030Z,969.47
2019-02-03T09:02:52.246Z,969.50
2019-02-03T09:03:52.171Z,969.53
2019-02-03T09:05:56.445Z,969.55
2019-02-03T09:06:57.586Z,969.62
2019-02-03T09:07:56.239Z,969.61
2019-02-03T09:08:56.143Z,969.64
2019-02-03T09:09:56.059Z,969.64
2019-02-03T09:10:55.981Z,969.69
2019-02-03T09:11:55.874Z,969.66
2019-02-03T09:12:55.795Z,969.68
2019-02-03T09:13:55.892Z,969.67
2019-02-03T09:14:55.617Z,969.73
2019-02-03T09:15:55.523Z,969.78
2019-02-03T09:16:55.428Z,969.79
2019-02-03T09:17:55.347Z,969.90
2019-02-03T09:18:55.255Z,969.83
2019-02-03T09:19:57.974Z,969.85
2019-02-03T09:20:56.121Z,969.85
2019-02-03T09:21:54.994Z,969.89
2019-02-03T09:22:54.905Z,969.96
2019-02-03T09:23:54.820Z,969.99
2019-02-03T09:24:54.727Z,969.96
2019-02-03T09:25:54.638Z,970.08
2019-02-03T09:26:54.547Z,970.04
2019-02-03T09:27:54.463Z,970.00
2019-02-03T09:28:54.367Z,970.04
2019-02-03T09:29:54.283Z,970.05
2019-02-03T09:30:54.196Z,970.11
2019-02-03T09:31:54.110Z,970.10
2019-02-03T09:32:54.013Z,970.15
2019-02-03T09:33:53.927Z,970.14
2019-02-03T09:34:53.907Z,970.15
2019-02-03T09:35:53.750Z,970.15
2019-02-03T09:36:53.662Z,970.18
2019-02-03T09:37:53.572Z,970.24
2019-02-03T09:38:53.486Z,970.25
2019-02-03T09:39:53.393Z,970.29
2019-02-03T09:41:00.236Z,970.28
2019-02-03T09:41:53.217Z,970.33
2019-02-03T09:42:53.145Z,970.33
2019-02-03T09:43:53.040Z,970.41
2019-02-03T09:44:52.949Z,970.39
2019-02-03T09:45:52.873Z,970.47
2019-02-03T09:46:52.770Z,970.41
2019-02-03T09:47:52.689Z,970.53
2019-02-03T09:48:52.599Z,970.60
2019-02-03T09:49:52.508Z,970.66
2019-02-03T09:50:52.422Z,970.65
2019-02-03T09:51:52.331Z,970.65
2019-02-03T09:52:52.240Z,970.65
2019-02-03T09:53:52.153Z,970.73
2019-02-03T09:54:52.065Z,970.70
2019-02-03T09:55:51.975Z,970.78
2019-02-03T09:56:51.881Z,970.77
2019-02-03T09:57:51.798Z,970.79
2019-02-03T09:58:51.727Z,970.82
2019-02-03T09:59:51.619Z,970.79
2019-02-03T10:00:51.528Z,970.85
2019-02-03T10:01:51.440Z,970.94
2019-02-03T10:02:51.361Z,970.87
2019-02-03T10:03:51.263Z,970.87
2019-02-03T10:04:51.174Z,970.91
2019-02-03T10:05:51.091Z,970.97
2019-02-03T10:06:51.004Z,970.92
2019-02-03T10:07:50.911Z,971.02
2019-02-03T10:08:50.821Z,970.95
2019-02-03T10:09:50.739Z,970.99
2019-02-03T10:10:50.644Z,971.05
2019-02-03T10:11:50.555Z,971.05
2019-02-03T10:12:50.471Z,971.14
2019-02-03T10:13:50.379Z,971.09
2019-02-03T10:14:50.286Z,971.08
2019-02-03T10:15:50.199Z,971.13
2019-02-03T10:16:50.130Z,971.16
2019-02-03T10:17:50.023Z,971.09
2019-02-03T10:18:49.937Z,971.16
2019-02-03T10:19:49.880Z,971.17
2019-02-03T10:20:49.761Z,971.15
2019-02-03T10:21:49.684Z,971.16
2019-02-03T10:22:49.580Z,971.18
2019-02-03T10:23:49.507Z,971.19
2019-02-03T10:24:49.402Z,971.26
2019-02-03T10:25:49.316Z,971.22
2019-02-03T10:26:49.225Z,971.23
2019-02-03T10:27:49.143Z,971.36
2019-02-03T10:28:49.049Z,971.28
2019-02-03T10:29:48.957Z,971.29
2019-02-03T10:30:48.867Z,971.24
2019-02-03T10:31:48.785Z,971.26
2019-02-03T10:32:48.707Z,971.29
2019-02-03T10:33:48.603Z,971.30
2019-02-03T10:34:48.517Z,971.27
2019-02-03T10:35:48.430Z,971.30
2019-02-03T10:36:48.340Z,971.27
2019-02-03T10:37:48.276Z,971.26
2019-02-03T10:38:48.162Z,971.31
2019-02-03T10:39:48.092Z,971.34
2019-02-03T10:40:47.987Z,971.33
2019-02-03T10:41:47.899Z,971.33
2019-02-03T10:42:47.809Z,971.32
2019-02-03T10:43:47.723Z,971.33
2019-02-03T10:44:47.633Z,971.35
2019-02-03T10:45:47.542Z,971.40
2019-02-03T10:46:47.455Z,971.35
2019-02-03T10:47:47.368Z,971.44
2019-02-03T10:48:47.276Z,971.39
2019-02-03T10:49:47.191Z,971.38
2019-02-03T10:50:47.105Z,971.42
2019-02-03T10:51:47.013Z,971.40
2019-02-03T10:52:46.920Z,971.43
2019-02-03T10:53:46.836Z,971.44
2019-02-03T10:54:46.748Z,971.47
2019-02-03T10:55:46.654Z,971.42
2019-02-03T10:56:46.571Z,971.42
2019-02-03T10:57:46.481Z,971.43
2019-02-03T10:58:46.393Z,971.43
2019-02-03T10:59:46.301Z,971.48
2019-02-03T11:00:46.222Z,971.48
2019-02-03T11:01:46.151Z,971.49
2019-02-03T11:02:46.039Z,971.52
2019-02-03T11:03:45.949Z,971.52
2019-02-03T11:04:45.862Z,971.51
2019-02-03T11:05:45.772Z,971.53
2019-02-03T11:06:45.710Z,971.56
2019-02-03T11:07:45.596Z,971.54
2019-02-03T11:08:45.509Z,971.59
2019-02-03T11:09:45.422Z,971.51
2019-02-03T11:10:45.334Z,971.57
2019-02-03T11:11:45.244Z,971.65
2019-02-03T11:12:45.153Z,971.73
2019-02-03T11:13:45.075Z,971.67
2019-02-03T11:14:44.975Z,971.72
2019-02-03T11:15:44.909Z,971.66
2019-02-03T11:16:44.798Z,971.66
2019-02-03T11:17:44.722Z,971.67
2019-02-03T11:18:44.640Z,971.71
2019-02-03T11:19:44.534Z,971.68
2019-02-03T11:20:44.451Z,971.73
2019-02-03T11:21:44.360Z,971.74
2019-02-03T11:22:44.272Z,971.72
2019-02-03T11:23:44.179Z,971.76
2019-02-03T11:24:44.100Z,971.74
2019-02-03T11:25:44.008Z,971.72
2019-02-03T11:26:43.912Z,971.76
2019-02-03T11:27:43.833Z,971.80
2019-02-03T11:28:43.742Z,971.83
2019-02-03T11:29:43.659Z,971.85
2019-02-03T11:30:43.561Z,971.84
2019-02-03T11:31:43.468Z,971.97
2019-02-03T11:32:43.386Z,971.85
2019-02-03T11:33:43.300Z,971.87
2019-02-03T11:34:43.209Z,971.88
2019-02-03T11:35:43.121Z,971.86
2019-02-03T11:36:43.032Z,971.89
2019-02-03T11:37:42.944Z,971.90
2019-02-03T11:38:42.851Z,971.89
2019-02-03T11:39:42.773Z,971.93
2019-02-03T11:40:42.677Z,971.93
2019-02-03T11:41:49.110Z,971.94
2019-02-03T11:42:42.513Z,971.99
2019-02-03T11:43:43.412Z,971.93
2019-02-03T11:44:42.324Z,972.05
2019-02-03T11:45:42.238Z,971.97
2019-02-03T11:46:42.145Z,971.99
2019-02-03T11:47:42.055Z,972.02
2019-02-03T11:48:41.964Z,972.09
2019-02-03T11:49:41.885Z,972.06
2019-02-03T11:50:41.794Z,972.07
2019-02-03T11:51:41.705Z,972.08
2019-02-03T11:52:41.611Z,972.11
2019-02-03T11:53:41.534Z,972.11
2019-02-03T11:54:41.504Z,972.15
2019-02-03T11:55:41.346Z,972.10
2019-02-03T11:56:41.293Z,972.15
2019-02-03T11:59:26.769Z,972.14
2019-02-03T12:00:26.606Z,972.18
2019-02-03T12:02:41.730Z,972.22
2019-02-03T12:03:33.314Z,972.25
2019-02-03T12:05:37.634Z,972.31
2019-02-03T12:06:37.510Z,972.30
2019-02-03T12:08:41.828Z,972.30
2019-02-03T12:09:41.696Z,972.26
2019-02-03T12:11:34.924Z,972.33
2019-02-03T12:12:34.831Z,972.36
2019-02-03T12:14:39.095Z,972.35
2019-02-03T12:15:39.005Z,972.40
2019-02-03T12:17:43.291Z,972.41
2019-02-03T12:18:43.192Z,972.43
2019-02-03T12:20:50.037Z,972.38
2019-02-03T12:21:49.878Z,972.40
2019-02-03T12:23:54.379Z,972.44
2019-02-03T12:24:54.284Z,972.38
2019-02-03T12:27:01.203Z,972.42
2019-02-03T12:28:00.992Z,972.53
2019-02-03T12:30:06.339Z,972.46
2019-02-03T12:31:06.371Z,972.47
2019-02-03T12:33:09.989Z,972.50
2019-02-03T12:34:09.887Z,972.67
2019-02-03T12:36:13.683Z,972.54
2019-02-03T12:37:13.591Z,972.62
2019-02-03T12:38:13.507Z,972.57
2019-02-03T12:39:13.414Z,972.59
2019-02-03T12:40:13.325Z,972.65
2019-02-03T12:41:13.236Z,972.64
2019-02-03T12:42:13.719Z,972.69
2019-02-03T12:43:13.060Z,972.71
2019-02-03T12:44:12.971Z,972.77
2019-02-03T12:45:12.884Z,972.80